Time;durP1;ratioP1;P1;durP2;ratioP2;P2;SDS_P1;SDS_P2;PMS_P1;PMS_P2;Temp;Humidity;BMP_temperature;BMP_pressure;BME280_temperature;BME280_humidity;BME280_pressure;Samples;Min_cycle;Max_cycle;Signal;HPM_P1;HPM_P2
2023/11/19 00:00:12;;;;;;;5.37;2.50;;;;;;;0.50;66.41;100939.60;1737755;82;21122;-73
2023/11/19 00:02:43;;;;;;;3.62;2.10;;;;;;;0.50;66.25;100942.78;1774674;81;21059;-71
2023/11/19 00:05:12;;;;;;;4.45;2.67;;;;;;;0.51;66.06;100939.11;1752847;81;21455;-70
2023/11/19 00:07:42;;;;;;;3.42;2.10;;;;;;;0.48;66.03;100936.16;1774753;81;21039;-71
2023/11/19 00:10:13;;;;;;;4.00;2.50;;;;;;;0.47;65.87;100940.33;1774649;81;21040;-72
2023/11/19 00:12:44;;;;;;;5.28;2.10;;;;;;;0.41;65.76;100947.55;1737591;82;21467;-71
2023/11/19 00:15:13;;;;;;;3.58;2.20;;;;;;;0.36;65.98;100940.30;1774477;81;21987;-70
2023/11/19 00:17:44;;;;;;;3.42;2.27;;;;;;;0.35;66.03;100946.19;1774540;80;21466;-72
2023/11/19 00:20:21;;;;;;;3.25;1.80;;;;;;;0.38;66.11;100937.00;1753333;81;21467;-72
2023/11/19 00:22:53;;;;;;;4.33;2.15;;;;;;;0.39;65.95;100934.67;1774808;80;21011;-71
2023/11/19 00:25:23;;;;;;;3.87;2.35;;;;;;;0.35;65.93;100931.85;1737807;82;21083;-71
2023/11/19 00:27:53;;;;;;;4.60;2.62;;;;;;;0.34;66.04;100926.09;1740441;82;21094;-71
2023/11/19 00:30:22;;;;;;;3.52;2.12;;;;;;;0.34;66.23;100924.25;1745701;82;21020;-71
2023/11/19 00:32:50;;;;;;;4.03;2.42;;;;;;;0.36;66.00;100926.34;1716092;83;21035;-72
2023/11/19 00:35:19;;;;;;;3.92;2.47;;;;;;;0.38;66.15;100934.30;1782551;80;21055;-72
2023/11/19 00:37:49;;;;;;;4.03;2.40;;;;;;;0.41;66.02;100926.84;1782607;80;21066;-70
2023/11/19 00:40:21;;;;;;;3.98;2.37;;;;;;;0.42;65.88;100929.05;1782888;80;21070;-72
2023/11/19 00:42:49;;;;;;;4.25;2.40;;;;;;;0.43;65.75;100941.55;1782938;80;21003;-71
2023/11/19 00:45:18;;;;;;;4.90;2.40;;;;;;;0.43;65.45;100948.28;1782821;80;21043;-70
2023/11/19 00:47:47;;;;;;;3.75;1.90;;;;;;;0.39;65.39;100946.80;1782854;80;21494;-72
2023/11/19 00:50:17;;;;;;;5.00;2.47;;;;;;;0.39;65.31;100940.92;1782914;80;20995;-70
2023/11/19 00:52:47;;;;;;;2.92;2.05;;;;;;;0.38;65.36;100937.86;1782725;80;21050;-72
2023/11/19 00:55:17;;;;;;;3.60;2.20;;;;;;;0.37;65.29;100933.45;1782972;80;21023;-71
2023/11/19 00:57:46;;;;;;;7.75;2.55;;;;;;;0.37;65.16;100932.59;1782853;80;21074;-71
2023/11/19 01:00:19;;;;;;;3.62;2.02;;;;;;;0.35;65.26;100927.81;1782730;80;21051;-71
2023/11/19 01:02:50;;;;;;;5.78;2.25;;;;;;;0.34;65.20;100916.66;1782894;80;21065;-71
2023/11/19 01:05:24;;;;;;;3.80;2.20;;;;;;;0.35;65.29;100917.03;1782680;80;21031;-71
2023/11/19 01:07:53;;;;;;;4.92;2.40;;;;;;;0.38;65.40;100922.17;1782818;80;21020;-70
2023/11/19 01:10:24;;;;;;;3.65;2.10;;;;;;;0.40;65.16;100921.56;1782781;80;21015;-72
2023/11/19 01:12:53;;;;;;;4.00;2.47;;;;;;;0.37;65.26;100916.42;1782931;80;21019;-71
2023/11/19 01:15:22;;;;;;;4.72;2.20;;;;;;;0.37;65.38;100917.27;1782803;80;21023;-69
2023/11/19 01:17:51;;;;;;;3.45;2.00;;;;;;;0.38;65.32;100919.48;1783010;80;21043;-72
2023/11/19 01:20:22;;;;;;;5.20;2.52;;;;;;;0.34;65.05;100913.47;1783026;80;21011;-72
2023/11/19 01:22:51;;;;;;;3.83;2.08;;;;;;;0.35;65.27;100918.37;1782812;80;21513;-69
2023/11/19 01:25:20;;;;;;;4.45;2.42;;;;;;;0.36;65.26;100914.21;1782624;80;21067;-70
2023/11/19 01:27:49;;;;;;;4.80;2.60;;;;;;;0.37;65.32;100903.80;1779537;80;21154;-72
2023/11/19 01:30:19;;;;;;;3.02;2.08;;;;;;;0.37;65.26;100904.29;1767639;81;21039;-70
2023/11/19 01:32:50;;;;;;;4.40;2.50;;;;;;;0.35;65.24;100895.47;1767459;81;21012;-71
2023/11/19 01:35:19;;;;;;;5.62;2.33;;;;;;;0.34;65.32;100897.30;1767369;81;21067;-71
2023/11/19 01:37:48;;;;;;;4.83;2.35;;;;;;;0.30;65.23;100893.98;1767568;81;21078;-70
2023/11/19 01:40:20;;;;;;;4.10;2.33;;;;;;;0.27;65.16;100886.14;1767607;81;21016;-71
2023/11/19 01:42:49;;;;;;;4.70;2.10;;;;;;;0.25;65.19;100886.75;1767589;81;21059;-72
2023/11/19 01:45:30;;;;;;;4.30;2.47;;;;;;;0.27;65.37;100876.71;1767370;81;20992;-71
2023/11/19 01:48:00;;;;;;;4.42;2.08;;;;;;;0.30;65.23;100884.55;1767410;81;21071;-70
2023/11/19 01:50:30;;;;;;;4.12;2.17;;;;;;;0.30;65.18;100880.52;1767472;81;21088;-70
2023/11/19 01:52:59;;;;;;;5.33;2.30;;;;;;;0.29;65.19;100882.84;1767485;80;21423;-72
2023/11/19 01:55:28;;;;;;;4.25;2.08;;;;;;;0.27;65.12;100880.75;1767649;81;20992;-72
2023/11/19 01:58:00;;;;;;;3.98;2.20;;;;;;;0.24;65.11;100877.44;1767685;81;21036;-70
2023/11/19 02:00:29;;;;;;;5.95;2.50;;;;;;;0.18;65.24;100880.13;1767515;81;21098;-71
2023/11/19 02:02:58;;;;;;;3.22;2.20;;;;;;;0.17;65.23;100882.45;1767516;81;21019;-72
2023/11/19 02:05:27;;;;;;;5.50;2.33;;;;;;;0.15;65.35;100878.16;1767531;81;21429;-71
2023/11/19 02:07:56;;;;;;;4.37;2.12;;;;;;;0.13;65.41;100882.31;1767538;81;21525;-72
2023/11/19 02:10:25;;;;;;;3.33;2.00;;;;;;;0.10;65.33;100882.55;1739659;81;21087;-71
2023/11/19 02:12:55;;;;;;;2.67;1.82;;;;;;;0.10;65.46;100887.09;1767453;81;21447;-74
2023/11/19 02:15:26;;;;;;;3.67;2.15;;;;;;;0.10;65.47;100892.48;1765996;81;21031;-71
2023/11/19 02:17:55;;;;;;;3.52;1.95;;;;;;;0.10;65.58;100887.95;1767702;81;21036;-71
2023/11/19 02:20:26;;;;;;;5.97;2.30;;;;;;;0.12;65.66;100890.03;1767658;81;21012;-70
2023/11/19 02:22:54;;;;;;;4.50;2.17;;;;;;;0.13;65.68;100880.97;1767775;80;21483;-71
2023/11/19 02:25:30;;;;;;;3.30;2.20;;;;;;;0.16;65.67;100877.18;1767683;81;21044;-69
2023/11/19 02:28:00;;;;;;;3.90;2.27;;;;;;;0.19;65.64;100872.90;1767401;80;21182;-70
2023/11/19 02:30:31;;;;;;;3.92;2.15;;;;;;;0.18;65.66;100868.00;1767403;81;21017;-71
2023/11/19 02:33:05;;;;;;;3.10;2.40;;;;;;;0.16;65.59;100871.30;1767439;81;21075;-71
2023/11/19 02:35:32;;;;;;;3.42;2.00;;;;;;;0.16;65.60;100865.91;1767613;81;21036;-71
2023/11/19 02:38:01;;;;;;;2.85;2.10;;;;;;;0.15;65.63;100866.89;1767562;81;21586;-72
2023/11/19 02:40:30;;;;;;;3.77;2.12;;;;;;;0.12;65.59;100872.52;1767360;81;21439;-71
2023/11/19 02:42:58;;;;;;;3.55;2.12;;;;;;;0.13;65.65;100870.20;1767529;81;21507;-70
2023/11/19 02:45:29;;;;;;;2.83;1.85;;;;;;;0.15;65.68;100870.08;1767917;81;21091;-71
2023/11/19 02:48:01;;;;;;;3.67;2.30;;;;;;;0.14;65.68;100881.34;1767691;81;21067;-70
2023/11/19 02:50:31;;;;;;;4.70;2.15;;;;;;;0.18;65.76;100869.84;1767735;81;21036;-72
2023/11/19 02:53:01;;;;;;;3.37;2.37;;;;;;;0.20;65.62;100863.34;1767556;80;21043;-72
2023/11/19 02:55:35;;;;;;;3.55;2.20;;;;;;;0.20;65.65;100863.84;1767459;81;21470;-71
2023/11/19 02:58:05;;;;;;;2.85;1.80;;;;;;;0.21;65.72;100866.41;1767387;81;21431;-72
2023/11/19 03:00:35;;;;;;;3.67;2.08;;;;;;;0.20;65.44;100859.80;1767443;81;21035;-71
2023/11/19 03:03:17;;;;;;;3.90;1.98;;;;;;;0.15;65.43;100850.73;1767602;81;21004;-71
2023/11/19 03:05:36;;;;;;;3.70;1.72;;;;;;;0.14;65.53;100853.05;1765647;81;21054;-71
2023/11/19 03:08:05;;;;;;;3.80;2.15;;;;;;;0.09;65.43;100851.20;1767697;81;21008;-69
2023/11/19 03:10:34;;;;;;;5.28;2.02;;;;;;;0.07;65.66;100846.91;1767572;81;21027;-71
2023/11/19 03:13:03;;;;;;;3.30;2.10;;;;;;;0.09;65.78;100842.27;1767651;81;21036;-70
2023/11/19 03:15:32;;;;;;;3.17;1.92;;;;;;;0.10;66.00;100843.49;1767611;81;21416;-73
2023/11/19 03:18:01;;;;;;;3.47;1.92;;;;;;;0.12;65.97;100832.59;1767409;81;21039;-71
2023/11/19 03:20:30;;;;;;;3.77;2.17;;;;;;;0.10;65.93;100830.51;1767721;81;21028;-70
2023/11/19 03:23:00;;;;;;;4.58;2.10;;;;;;;0.08;66.00;100825.73;1767612;81;21098;-71
2023/11/19 03:25:33;;;;;;;2.55;1.87;;;;;;;0.10;65.97;100823.28;1767691;81;21052;-69
2023/11/19 03:28:03;;;;;;;2.42;1.80;;;;;;;0.09;65.85;100826.09;1767429;81;21618;-70
2023/11/19 03:30:33;;;;;;;3.67;2.10;;;;;;;0.05;65.77;100822.79;1780246;80;21471;-70
2023/11/19 03:33:03;;;;;;;3.05;1.98;;;;;;;0.03;65.88;100819.84;1780232;80;21062;-71
2023/11/19 03:35:33;;;;;;;3.60;1.90;;;;;;;0.01;65.97;100811.88;1780384;80;21015;-71
2023/11/19 03:38:01;;;;;;;3.08;2.00;;;;;;;-0.01;66.04;100813.81;1780369;80;21485;-71
2023/11/19 03:40:30;;;;;;;3.52;1.98;;;;;;;0.02;66.14;100820.34;1780342;80;21495;-71
2023/11/19 03:42:59;;;;;;;5.40;1.80;;;;;;;0.03;66.04;100811.28;1780376;80;21035;-71
2023/11/19 03:45:29;;;;;;;2.72;1.98;;;;;;;0.03;66.07;100808.58;1780324;80;21015;-71
2023/11/19 03:47:57;;;;;;;3.50;2.20;;;;;;;0.07;66.14;100811.89;1780457;80;21026;-70
2023/11/19 03:50:26;;;;;;;3.47;1.92;;;;;;;0.09;66.13;100810.80;1780596;80;21027;-71
2023/11/19 03:52:55;;;;;;;3.42;2.00;;;;;;;0.09;66.02;100808.09;1780326;80;21046;-76
2023/11/19 03:55:24;;;;;;;2.85;1.82;;;;;;;0.06;65.95;100807.48;1780325;80;21423;-71
2023/11/19 03:57:53;;;;;;;2.92;1.60;;;;;;;0.06;65.89;100808.34;1780226;80;21066;-71
2023/11/19 04:00:21;;;;;;;3.42;1.82;;;;;;;0.03;65.93;100803.20;1780615;80;21439;-70
2023/11/19 04:02:50;;;;;;;2.98;1.95;;;;;;;0.04;65.96;100803.56;1752802;80;21043;-71
2023/11/19 04:05:19;;;;;;;4.00;2.02;;;;;;;0.05;66.06;100802.58;1780312;80;20999;-70
2023/11/19 04:07:48;;;;;;;3.52;1.70;;;;;;;0.05;66.03;100795.85;1780248;80;21482;-71
2023/11/19 04:10:17;;;;;;;2.75;2.00;;;;;;;0.07;66.09;100803.81;1780282;80;21466;-71
2023/11/19 04:12:46;;;;;;;2.75;1.72;;;;;;;0.03;66.10;100811.28;1780577;80;20987;-72
2023/11/19 04:15:15;;;;;;;6.12;2.05;;;;;;;0.05;66.22;100817.41;1780255;80;21462;-71
2023/11/19 04:17:44;;;;;;;3.20;2.10;;;;;;;0.08;66.15;100814.47;1780481;80;21070;-71
2023/11/19 04:20:13;;;;;;;5.45;2.42;;;;;;;0.07;65.99;100797.08;1780523;80;21058;-71
2023/11/19 04:22:44;;;;;;;3.17;2.00;;;;;;;0.05;66.09;100795.85;1780188;80;21470;-70
2023/11/19 04:25:13;;;;;;;4.15;2.40;;;;;;;0.07;66.03;100789.85;1780276;80;21728;-71
2023/11/19 04:27:42;;;;;;;2.75;1.60;;;;;;;0.08;66.16;100783.98;1780372;80;21035;-71
2023/11/19 04:30:12;;;;;;;3.70;2.08;;;;;;;0.10;65.65;100789.61;1770750;80;21071;-71
2023/11/19 04:32:41;;;;;;;3.65;1.85;;;;;;;0.03;65.47;100800.99;1767748;81;21021;-71
2023/11/19 04:35:09;;;;;;;2.65;1.70;;;;;;;-0.01;65.50;100790.91;1767494;80;21075;-71
2023/11/19 04:37:39;;;;;;;3.22;1.80;;;;;;;-0.03;65.78;100784.79;1767322;81;21529;-71
2023/11/19 04:40:08;;;;;;;2.90;1.98;;;;;;;-0.02;65.84;100786.02;1767712;81;21056;-71
2023/11/19 04:42:42;;;;;;;4.33;2.40;;;;;;;0.00;65.84;100789.97;1767600;81;21028;-71
2023/11/19 04:45:10;;;;;;;3.90;2.08;;;;;;;-0.03;65.74;100791.03;1767620;81;21067;-71
2023/11/19 04:47:39;;;;;;;2.80;1.80;;;;;;;-0.06;65.67;100792.63;1740284;81;21059;-70
2023/11/19 04:50:11;;;;;;;3.92;1.92;;;;;;;-0.06;65.77;100789.07;1767826;81;21107;-70
2023/11/19 04:52:40;;;;;;;3.65;1.87;;;;;;;-0.04;65.79;100799.23;1767463;80;21024;-72
2023/11/19 04:55:11;;;;;;;3.37;1.80;;;;;;;-0.04;65.56;100791.16;1767380;81;21493;-71
2023/11/19 04:57:40;;;;;;;3.20;2.02;;;;;;;-0.04;65.67;100792.50;1740413;81;21023;-71
2023/11/19 05:00:11;;;;;;;2.92;2.10;;;;;;;-0.02;65.74;100799.48;1767414;81;21079;-72
2023/11/19 05:02:41;;;;;;;3.05;1.90;;;;;;;0.01;65.67;100800.25;1767454;81;21067;-70
2023/11/19 05:05:12;;;;;;;2.58;1.92;;;;;;;-0.03;65.42;100811.72;1767701;81;21456;-71
2023/11/19 05:07:41;;;;;;;3.33;1.92;;;;;;;-0.09;65.31;100800.94;1767597;81;21036;-70
2023/11/19 05:10:10;;;;;;;3.67;1.92;;;;;;;-0.10;65.31;100794.33;1767431;81;21071;-71
2023/11/19 05:12:39;;;;;;;3.40;1.95;;;;;;;-0.13;65.10;100797.26;1767461;80;21024;-72
2023/11/19 05:15:08;;;;;;;2.35;1.62;;;;;;;-0.12;65.27;100801.67;1767611;81;21114;-71
2023/11/19 05:17:37;;;;;;;2.58;1.60;;;;;;;-0.10;65.09;100792.98;1767622;81;21555;-71
2023/11/19 05:20:13;;;;;;;3.02;1.82;;;;;;;-0.10;65.00;100788.45;1767434;81;21044;-72
2023/11/19 05:22:38;;;;;;;2.37;1.47;;;;;;;-0.07;64.88;100796.78;1766987;81;21016;-71
2023/11/19 05:25:08;;;;;;;3.30;1.77;;;;;;;-0.07;64.71;100792.73;1767486;81;21725;-70
2023/11/19 05:27:37;;;;;;;2.58;2.00;;;;;;;-0.06;64.45;100788.58;1767384;81;21468;-70
2023/11/19 05:30:08;;;;;;;3.70;1.75;;;;;;;-0.06;64.18;100788.58;1767511;80;21040;-72
2023/11/19 05:32:37;;;;;;;2.80;1.77;;;;;;;-0.05;64.06;100790.78;1767602;81;21032;-71
2023/11/19 05:35:08;;;;;;;2.75;1.55;;;;;;;-0.06;63.66;100788.58;1767505;81;21051;-71
2023/11/19 05:37:37;;;;;;;3.08;1.67;;;;;;;-0.04;63.49;100785.28;1767449;81;21079;-72
2023/11/19 05:40:14;;;;;;;3.12;1.70;;;;;;;-0.01;63.45;100785.03;1767379;81;21003;-71
2023/11/19 05:42:38;;;;;;;3.65;1.80;;;;;;;0.02;63.16;100789.36;1767118;81;21052;-70
2023/11/19 05:45:10;;;;;;;2.70;1.60;;;;;;;0.04;62.93;100788.75;1767379;81;21024;-71
2023/11/19 05:47:39;;;;;;;2.33;1.65;;;;;;;0.04;62.85;100787.89;1767549;81;21079;-71
2023/11/19 05:50:10;;;;;;;2.85;1.65;;;;;;;0.05;62.96;100778.34;1767596;81;21078;-71
2023/11/19 05:52:39;;;;;;;2.25;1.62;;;;;;;0.07;62.87;100774.18;1767643;81;21083;-72
2023/11/19 05:55:09;;;;;;;1.90;1.57;;;;;;;0.06;62.71;100764.38;1767414;81;21031;-71
2023/11/19 05:57:44;;;;;;;2.72;1.70;;;;;;;0.06;62.56;100763.03;1767416;81;21091;-70
2023/11/19 06:00:13;;;;;;;2.90;2.05;;;;;;;0.04;62.41;100766.34;1767675;81;20988;-71
2023/11/19 06:02:42;;;;;;;2.55;1.45;;;;;;;0.03;62.29;100764.14;1767388;81;21020;-71
2023/11/19 06:05:11;;;;;;;2.22;1.62;;;;;;;0.03;62.30;100762.79;1767509;81;21035;-71
2023/11/19 06:07:41;;;;;;;2.67;1.67;;;;;;;0.04;61.70;100763.16;1767401;81;21052;-71
2023/11/19 06:10:11;;;;;;;3.00;1.60;;;;;;;-0.06;61.53;100758.95;1767462;81;21008;-72
2023/11/19 06:12:41;;;;;;;3.33;1.72;;;;;;;-0.09;61.59;100761.89;1767543;81;21008;-72
2023/11/19 06:15:11;;;;;;;3.47;2.20;;;;;;;-0.10;61.75;100764.70;1740527;81;21087;-71
2023/11/19 06:17:40;;;;;;;2.77;1.80;;;;;;;-0.11;62.08;100761.16;1767534;81;21047;-71
2023/11/19 06:20:11;;;;;;;2.75;1.50;;;;;;;-0.10;61.95;100755.27;1767501;81;21063;-70
2023/11/19 06:22:43;;;;;;;3.08;1.75;;;;;;;-0.14;61.99;100747.93;1767507;81;20996;-71
2023/11/19 06:25:12;;;;;;;3.15;1.70;;;;;;;-0.15;62.06;100744.87;1767725;81;21064;-71
2023/11/19 06:27:42;;;;;;;4.30;1.90;;;;;;;-0.18;62.29;100761.27;1767410;81;21094;-70
2023/11/19 06:30:12;;;;;;;3.20;1.80;;;;;;;-0.16;62.30;100755.27;1767488;80;21072;-71
2023/11/19 06:32:41;;;;;;;3.95;2.17;;;;;;;-0.16;62.31;100755.76;1767367;81;21020;-70
2023/11/19 06:35:10;;;;;;;3.37;1.85;;;;;;;-0.15;62.26;100748.91;1767496;81;21031;-72
2023/11/19 06:37:39;;;;;;;5.10;2.27;;;;;;;-0.15;61.97;100752.09;1767450;81;21114;-71
2023/11/19 06:40:09;;;;;;;3.37;1.98;;;;;;;-0.20;61.85;100747.06;1767667;80;20984;-72
2023/11/19 06:42:39;;;;;;;4.97;2.10;;;;;;;-0.22;61.63;100749.02;1767613;81;21063;-70
2023/11/19 06:45:09;;;;;;;2.52;1.77;;;;;;;-0.24;61.62;100740.20;1767539;81;21024;-72
2023/11/19 06:47:38;;;;;;;3.30;2.00;;;;;;;-0.21;61.73;100743.14;1767570;81;21016;-70
2023/11/19 06:50:09;;;;;;;5.15;2.10;;;;;;;-0.18;61.70;100731.64;1767568;81;21051;-70
2023/11/19 06:52:38;;;;;;;2.75;1.70;;;;;;;-0.12;61.72;100734.34;1767584;81;21656;-70
2023/11/19 06:55:08;;;;;;;4.75;1.85;;;;;;;-0.11;61.38;100734.71;1767660;81;21015;-71
2023/11/19 06:57:37;;;;;;;3.20;1.87;;;;;;;-0.09;61.31;100723.33;1767620;81;21051;-72
2023/11/19 07:00:08;;;;;;;3.45;2.02;;;;;;;-0.05;61.16;100719.41;1767500;81;21020;-72
2023/11/19 07:02:37;;;;;;;3.22;1.87;;;;;;;-0.03;61.08;100713.41;1767490;81;21056;-71
2023/11/19 07:05:08;;;;;;;4.33;2.30;;;;;;;-0.02;61.24;100707.91;1767448;80;21507;-71
2023/11/19 07:07:37;;;;;;;3.62;2.10;;;;;;;0.05;61.37;100704.27;1767665;80;21040;-72
2023/11/19 07:10:09;;;;;;;3.92;2.33;;;;;;;0.10;60.90;100707.44;1767504;81;21720;-73
2023/11/19 07:12:37;;;;;;;2.65;1.67;;;;;;;0.09;60.65;100707.56;1767433;80;21066;-71
2023/11/19 07:15:08;;;;;;;2.10;1.45;;;;;;;0.07;60.34;100700.09;1767393;81;21649;-70
2023/11/19 07:17:37;;;;;;;3.77;1.80;;;;;;;0.04;60.17;100709.28;1767645;81;21020;-71
2023/11/19 07:20:07;;;;;;;4.22;1.98;;;;;;;0.04;60.06;100717.36;1716349;81;21012;-71
2023/11/19 07:22:38;;;;;;;3.83;2.10;;;;;;;0.04;59.76;100715.16;1767592;81;21012;-72
2023/11/19 07:25:08;;;;;;;3.95;2.33;;;;;;;0.05;59.81;100717.73;1767442;81;21467;-71
2023/11/19 07:27:38;;;;;;;2.70;1.67;;;;;;;0.10;59.74;100711.48;1767447;81;21020;-71
2023/11/19 07:30:08;;;;;;;3.75;1.70;;;;;;;0.08;59.14;100705.36;1769296;81;21082;-70
2023/11/19 07:32:38;;;;;;;2.25;1.60;;;;;;;0.06;58.80;100712.70;1774601;81;21082;-70
2023/11/19 07:35:08;;;;;;;2.62;1.60;;;;;;;-0.04;58.49;100719.28;1774809;81;21058;-72
2023/11/19 07:37:36;;;;;;;2.37;1.50;;;;;;;-0.12;58.63;100728.47;1774709;81;21004;-70
2023/11/19 07:40:07;;;;;;;3.12;1.47;;;;;;;-0.13;58.93;100721.37;1737810;82;21071;-71
2023/11/19 07:42:36;;;;;;;2.60;1.80;;;;;;;-0.12;58.71;100727.12;1774442;81;21032;-71
2023/11/19 07:45:07;;;;;;;2.80;1.70;;;;;;;-0.14;59.00;100722.84;1774667;81;21071;-70
2023/11/19 07:47:35;;;;;;;3.83;1.72;;;;;;;-0.11;59.09;100728.83;1774752;81;21027;-70
2023/11/19 07:50:06;;;;;;;2.85;1.62;;;;;;;-0.06;59.29;100720.39;1737865;82;21004;-72
2023/11/19 07:52:34;;;;;;;3.22;1.32;;;;;;;-0.03;59.03;100725.53;1708399;84;21075;-72
2023/11/19 07:55:05;;;;;;;2.08;1.47;;;;;;;-0.03;58.69;100714.76;1774860;80;21447;-71
2023/11/19 07:57:34;;;;;;;2.40;1.42;;;;;;;-0.07;58.62;100710.59;1774475;81;21450;-72
2023/11/19 08:00:04;;;;;;;3.62;1.70;;;;;;;-0.07;58.95;100708.77;1774732;81;21404;-72
2023/11/19 08:02:35;;;;;;;2.47;1.75;;;;;;;0.02;59.01;100711.73;1736963;82;21040;-72
2023/11/19 08:05:05;;;;;;;3.02;1.90;;;;;;;0.08;58.88;100715.28;1774524;81;20996;-72
2023/11/19 08:07:34;;;;;;;1.77;1.40;;;;;;;0.13;58.89;100712.58;1774473;81;21012;-73
2023/11/19 08:10:05;;;;;;;4.58;1.90;;;;;;;0.17;58.73;100707.31;1774628;80;21087;-73
2023/11/19 08:12:35;;;;;;;3.27;1.62;;;;;;;0.19;58.69;100699.97;1737659;82;21028;-73
2023/11/19 08:15:05;;;;;;;3.20;1.70;;;;;;;0.23;58.72;100696.05;1708318;84;21067;-73
2023/11/19 08:17:34;;;;;;;3.17;1.87;;;;;;;0.27;58.17;100693.46;1774493;81;21294;-72
2023/11/19 08:20:04;;;;;;;2.08;1.27;;;;;;;0.27;58.00;100685.88;1774528;81;21489;-72
2023/11/19 08:22:34;;;;;;;1.57;1.25;;;;;;;0.29;57.98;100684.77;1737910;82;21016;-72
2023/11/19 08:25:04;;;;;;;1.98;1.27;;;;;;;0.39;58.03;100682.17;1708401;84;21024;-72
2023/11/19 08:27:33;;;;;;;3.05;1.70;;;;;;;0.46;57.41;100677.98;1774463;81;21095;-71
2023/11/19 08:30:01;;;;;;;2.92;1.70;;;;;;;0.45;57.17;100677.63;1775193;80;21487;-72
2023/11/19 08:32:31;;;;;;;2.62;1.70;;;;;;;0.45;57.20;100678.97;1782666;80;21066;-71
2023/11/19 08:35:00;;;;;;;2.55;1.40;;;;;;;0.44;57.12;100672.36;1782836;80;21050;-72
2023/11/19 08:37:29;;;;;;;2.77;1.50;;;;;;;0.45;57.33;100665.98;1783007;80;21047;-72
2023/11/19 08:39:58;;;;;;;2.02;1.55;;;;;;;0.49;57.28;100664.75;1782727;80;21536;-71
2023/11/19 08:42:26;;;;;;;3.80;1.87;;;;;;;0.50;56.68;100669.16;1782861;80;21031;-70
2023/11/19 08:44:55;;;;;;;3.58;1.80;;;;;;;0.47;56.89;100664.88;1782785;80;21031;-75
2023/11/19 08:47:24;;;;;;;3.08;1.92;;;;;;;0.47;57.11;100658.63;1783036;80;21051;-71
2023/11/19 08:49:53;;;;;;;3.12;1.85;;;;;;;0.49;57.14;100652.12;1752986;80;21066;-70
2023/11/19 08:52:24;;;;;;;2.67;1.70;;;;;;;0.50;56.86;100647.59;1782910;80;21043;-72
2023/11/19 08:54:52;;;;;;;2.92;1.70;;;;;;;0.48;57.00;100642.33;1782715;80;21043;-71
2023/11/19 08:57:21;;;;;;;4.70;2.10;;;;;;;0.47;56.92;100643.31;1782117;79;21029;-75
2023/11/19 08:59:49;;;;;;;3.27;1.87;;;;;;;0.47;56.91;100644.66;1795797;79;21047;-76
2023/11/19 09:02:18;;;;;;;3.45;1.65;;;;;;;0.47;57.70;100637.92;1782607;80;21057;-74
2023/11/19 09:04:47;;;;;;;3.85;1.60;;;;;;;0.62;60.76;100647.42;1782541;80;21076;-75
2023/11/19 09:07:17;;;;;;;2.80;1.90;;;;;;;0.72;59.07;100630.51;1814098;79;21074;-75
2023/11/19 09:09:46;;;;;;;5.92;2.33;;;;;;;0.79;58.47;100642.00;1814582;79;21470;-75
2023/11/19 09:12:14;;;;;;;3.30;1.75;;;;;;;0.83;57.41;100635.36;1814404;79;21031;-75
2023/11/19 09:14:43;;;;;;;2.55;1.70;;;;;;;0.81;57.30;100626.55;1797643;79;21104;-76
2023/11/19 09:17:12;;;;;;;3.17;1.75;;;;;;;0.87;56.98;100615.23;1782692;80;21477;-75
2023/11/19 09:19:41;;;;;;;3.40;1.50;;;;;;;0.85;56.70;100611.81;1782700;80;21052;-75
2023/11/19 09:22:10;;;;;;;3.75;2.30;;;;;;;0.82;56.60;100613.42;1782689;80;21080;-75
2023/11/19 09:24:38;;;;;;;2.85;1.70;;;;;;;0.81;56.50;100611.70;1782691;80;21016;-75
2023/11/19 09:27:07;;;;;;;2.87;1.80;;;;;;;0.80;56.57;100611.34;1782915;80;21021;-75
2023/11/19 09:29:36;;;;;;;4.40;2.30;;;;;;;0.89;56.75;100605.17;1782789;80;21024;-75
2023/11/19 09:32:07;;;;;;;3.35;1.85;;;;;;;0.98;55.98;100608.06;1786911;80;21031;-76
2023/11/19 09:34:36;;;;;;;3.40;2.30;;;;;;;0.97;55.93;100605.86;1788216;80;21039;-75
2023/11/19 09:37:06;;;;;;;4.33;2.10;;;;;;;1.08;57.82;100611.69;1788083;80;21565;-75
2023/11/19 09:39:36;;;;;;;3.30;2.10;;;;;;;1.14;56.87;100608.45;1786496;80;21028;-75
2023/11/19 09:42:06;;;;;;;3.62;2.15;;;;;;;1.15;56.74;100615.56;1788111;80;21042;-76
2023/11/19 09:44:34;;;;;;;4.03;2.00;;;;;;;1.20;56.57;100622.28;1788142;80;21051;-76
2023/11/19 09:47:03;;;;;;;3.58;1.90;;;;;;;1.22;56.07;100616.25;1788357;80;21005;-75
2023/11/19 09:49:32;;;;;;;2.75;1.57;;;;;;;1.24;55.94;100621.52;1788001;80;21024;-79
2023/11/19 09:52:03;;;;;;;4.20;2.20;;;;;;;1.21;55.54;100619.09;1771033;80;20976;-77
2023/11/19 09:54:32;;;;;;;5.08;1.85;;;;;;;1.16;55.41;100621.33;1788145;80;21059;-76
2023/11/19 09:57:03;;;;;;;3.98;2.00;;;;;;;1.15;57.52;100622.31;1770809;80;21482;-76
2023/11/19 09:59:31;;;;;;;3.12;1.80;;;;;;;1.22;56.69;100628.89;1788229;79;21028;-75
2023/11/19 10:02:00;;;;;;;4.83;2.40;;;;;;;1.22;56.09;100624.84;1788219;80;21027;-77
2023/11/19 10:04:30;;;;;;;4.62;1.80;;;;;;;1.19;55.82;100620.57;1788318;80;21058;-76
2023/11/19 10:07:00;;;;;;;2.92;1.75;;;;;;;1.21;55.70;100627.18;1819373;79;21080;-75
2023/11/19 10:09:29;;;;;;;2.70;1.80;;;;;;;1.19;55.43;100629.16;1751030;82;21019;-75
2023/11/19 10:11:57;;;;;;;4.28;2.08;;;;;;;1.22;58.63;100629.75;1751311;82;21061;-75
2023/11/19 10:14:26;;;;;;;2.67;1.52;;;;;;;1.27;57.77;100628.00;1750882;82;21053;-78
2023/11/19 10:16:55;;;;;;;20.68;9.08;;;;;;;1.28;56.59;100612.17;1750928;82;21102;-75
2023/11/19 10:19:24;;;;;;;3.30;2.00;;;;;;;1.26;56.02;100602.86;1751005;82;21062;-75
2023/11/19 10:21:53;;;;;;;2.58;1.82;;;;;;;1.24;55.92;100604.83;1751170;82;21087;-75
2023/11/19 10:24:34;;;;;;;3.35;2.00;;;;;;;1.22;55.89;100604.61;1750874;82;22150;-75
2023/11/19 10:27:08;;;;;;;3.75;2.08;;;;;;;1.32;60.10;100610.95;1750844;82;21031;-75
2023/11/19 10:29:38;;;;;;;2.92;1.70;;;;;;;1.40;57.61;100594.94;1751155;82;21039;-75
2023/11/19 10:32:06;;;;;;;2.22;1.40;;;;;;;1.39;56.63;100598.62;1741589;82;21501;-76
2023/11/19 10:34:39;;;;;;;3.12;1.50;;;;;;;1.36;56.00;100604.29;1733862;82;21043;-76
2023/11/19 10:37:08;;;;;;;3.40;1.80;;;;;;;1.34;57.22;100585.17;1806254;79;21008;-75
2023/11/19 10:39:55;;;;;;;3.50;2.17;;;;;;;1.33;56.17;100589.71;1806149;79;20988;-76
2023/11/19 10:42:27;;;;;;;2.80;1.65;;;;;;;1.32;57.05;100588.00;1806374;79;21066;-77
2023/11/19 10:44:55;;;;;;;5.08;2.08;;;;;;;1.35;56.51;100586.88;1737699;82;21024;-74
2023/11/19 10:47:24;;;;;;;3.35;1.98;;;;;;;1.29;55.87;100568.00;1806259;79;21051;-75
2023/11/19 10:49:55;;;;;;;2.75;1.82;;;;;;;1.26;55.83;100579.06;1806029;79;21032;-76
2023/11/19 10:52:24;;;;;;;3.50;1.80;;;;;;;1.25;55.71;100568.76;1737749;82;21079;-75
2023/11/19 10:54:52;;;;;;;2.80;1.70;;;;;;;1.26;55.47;100568.27;1806305;79;21007;-77
2023/11/19 10:57:22;;;;;;;1.92;1.55;;;;;;;1.27;55.43;100557.83;1737400;82;21051;-76
2023/11/19 10:59:56;;;;;;;3.42;1.90;;;;;;;1.24;55.46;100552.20;1806136;79;21020;-77
2023/11/19 11:02:25;;;;;;;4.83;1.80;;;;;;;1.26;55.64;100553.42;1737306;82;21027;-79
2023/11/19 11:04:54;;;;;;;4.35;2.25;;;;;;;1.26;55.40;100549.37;1802913;79;21083;-78
2023/11/19 11:07:25;;;;;;;7.85;3.20;;;;;;;1.26;55.51;100554.27;1774509;80;21425;-78
2023/11/19 11:09:55;;;;;;;4.53;2.58;;;;;;;1.27;55.57;100553.28;1772838;80;21017;-78
2023/11/19 11:12:24;;;;;;;3.25;1.87;;;;;;;1.31;55.65;100553.05;1752637;81;21492;-80
2023/11/19 11:14:53;;;;;;;3.75;2.10;;;;;;;1.33;55.62;100546.52;1774345;81;21543;-79
2023/11/19 11:17:21;;;;;;;4.67;2.25;;;;;;;1.36;55.47;100543.55;1774284;81;22053;-78
2023/11/19 11:19:50;;;;;;;2.25;1.45;;;;;;;1.39;56.57;100535.19;1774565;81;21538;-78
2023/11/19 11:22:18;;;;;;;2.22;1.60;;;;;;;1.39;55.90;100531.14;1774385;81;21088;-77
2023/11/19 11:25:00;;;;;;;3.75;1.80;;;;;;;1.33;55.64;100523.58;1772077;80;21482;-78
2023/11/19 11:27:52;;;;;;;3.45;1.90;;;;;;;1.24;55.32;100512.21;1774486;81;21033;-80
2023/11/19 11:30:26;;;;;;;3.05;1.60;;;;;;;1.16;55.99;100520.98;1774468;81;21065;-77
2023/11/19 11:33:24;;;;;;;3.92;1.75;;;;;;;1.17;55.89;100511.91;1774484;80;21042;-78
2023/11/19 11:36:21;;;;;;;16.93;9.93;;;;;;;1.18;55.90;100516.80;1774670;81;21025;-77
2023/11/19 11:38:50;;;;;;;2.80;1.65;;;;;;;1.28;58.68;100514.51;1774410;81;21467;-78
2023/11/19 11:41:23;;;;;;;2.62;1.60;;;;;;;1.27;57.23;100514.15;1774396;80;21542;-79
2023/11/19 11:43:55;;;;;;;3.27;1.77;;;;;;;1.28;56.97;100509.61;1774060;81;21033;-77